sensor_id;sensor_type;location;lat;lon;timestamp;pressure;altitude;pressure_sealevel;temperature;humidity
35331;BME280;21441;52.190;20.910;2023-06-26T00:00:35;100116.75;;;17.42;85.50
35331;BME280;21441;52.190;20.910;2023-06-26T00:03:22;100111.00;;;17.31;86.34
35331;BME280;21441;52.190;20.910;2023-06-26T00:05:49;100111.50;;;17.22;87.90
35331;BME280;21441;52.190;20.910;2023-06-26T00:08:17;100111.69;;;17.27;86.08
35331;BME280;21441;52.190;20.910;2023-06-26T00:10:44;100116.66;;;17.23;86.58
35331;BME280;21441;52.190;20.910;2023-06-26T00:13:13;100121.50;;;17.15;88.15
35331;BME280;21441;52.190;20.910;2023-06-26T00:15:40;100115.88;;;17.16;88.78
35331;BME280;21441;52.190;20.910;2023-06-26T00:18:07;100114.13;;;17.35;87.46
35331;BME280;21441;52.190;20.910;2023-06-26T00:20:34;100106.41;;;17.39;86.63
35331;BME280;21441;52.190;20.910;2023-06-26T00:23:01;100110.59;;;17.35;87.07
35331;BME280;21441;52.190;20.910;2023-06-26T00:25:29;100106.19;;;17.40;86.14
35331;BME280;21441;52.190;20.910;2023-06-26T00:27:56;100108.97;;;17.27;86.49
35331;BME280;21441;52.190;20.910;2023-06-26T00:30:25;100115.25;;;17.21;87.42
35331;BME280;21441;52.190;20.910;2023-06-26T00:32:51;100109.22;;;17.19;87.45
35331;BME280;21441;52.190;20.910;2023-06-26T00:35:18;100110.94;;;17.13;88.59
35331;BME280;21441;52.190;20.910;2023-06-26T00:37:45;100109.06;;;17.14;89.13
35331;BME280;21441;52.190;20.910;2023-06-26T00:40:12;100104.91;;;17.18;88.67
35331;BME280;21441;52.190;20.910;2023-06-26T00:42:39;100103.44;;;17.22;87.98
35331;BME280;21441;52.190;20.910;2023-06-26T00:45:07;100107.03;;;17.09;89.06
35331;BME280;21441;52.190;20.910;2023-06-26T00:47:35;100104.53;;;17.07;89.89
35331;BME280;21441;52.190;20.910;2023-06-26T00:50:04;100106.13;;;16.83;92.24
35331;BME280;21441;52.190;20.910;2023-06-26T00:52:31;100107.22;;;16.69;94.46
35331;BME280;21441;52.190;20.910;2023-06-26T00:54:58;100106.34;;;16.75;93.18
35331;BME280;21441;52.190;20.910;2023-06-26T00:57:25;100102.41;;;16.78;93.50
35331;BME280;21441;52.190;20.910;2023-06-26T00:59:52;100101.56;;;16.84;93.65
35331;BME280;21441;52.190;20.910;2023-06-26T01:02:19;100095.75;;;16.87;93.84
35331;BME280;21441;52.190;20.910;2023-06-26T01:04:48;100095.84;;;16.67;96.61
35331;BME280;21441;52.190;20.910;2023-06-26T01:07:16;100092.38;;;16.46;100.00
35331;BME280;21441;52.190;20.910;2023-06-26T01:09:44;100088.88;;;16.46;100.00
35331;BME280;21441;52.190;20.910;2023-06-26T01:12:12;100098.66;;;16.40;100.00
35331;BME280;21441;52.190;20.910;2023-06-26T01:14:39;100093.66;;;16.37;100.00
35331;BME280;21441;52.190;20.910;2023-06-26T01:17:07;100089.06;;;16.44;100.00
35331;BME280;21441;52.190;20.910;2023-06-26T01:19:37;100083.91;;;16.49;100.00
35331;BME280;21441;52.190;20.910;2023-06-26T01:22:12;100087.22;;;16.52;100.00
35331;BME280;21441;52.190;20.910;2023-06-26T01:24:50;100081.63;;;16.46;100.00
35331;BME280;21441;52.190;20.910;2023-06-26T01:27:22;100083.69;;;16.44;100.00
35331;BME280;21441;52.190;20.910;2023-06-26T01:29:50;100078.56;;;16.36;100.00
35331;BME280;21441;52.190;20.910;2023-06-26T01:32:18;100079.44;;;16.23;100.00
35331;BME280;21441;52.190;20.910;2023-06-26T01:34:45;100078.78;;;16.28;100.00
35331;BME280;21441;52.190;20.910;2023-06-26T01:37:12;100076.75;;;16.23;100.00
35331;BME280;21441;52.190;20.910;2023-06-26T01:39:39;100073.88;;;16.18;100.00
35331;BME280;21441;52.190;20.910;2023-06-26T01:42:07;100068.06;;;16.15;100.00
35331;BME280;21441;52.190;20.910;2023-06-26T01:44:42;100083.00;;;16.11;100.00
35331;BME280;21441;52.190;20.910;2023-06-26T01:47:12;100074.88;;;16.24;100.00
35331;BME280;21441;52.190;20.910;2023-06-26T01:49:47;100073.03;;;16.18;100.00
35331;BME280;21441;52.190;20.910;2023-06-26T01:52:19;100069.72;;;16.16;100.00
35331;BME280;21441;52.190;20.910;2023-06-26T01:54:58;100071.22;;;15.98;100.00
35331;BME280;21441;52.190;20.910;2023-06-26T01:57:30;100065.16;;;16.23;100.00
35331;BME280;21441;52.190;20.910;2023-06-26T02:00:00;100067.91;;;16.09;100.00
35331;BME280;21441;52.190;20.910;2023-06-26T02:02:28;100066.47;;;15.94;100.00
35331;BME280;21441;52.190;20.910;2023-06-26T02:04:56;100065.84;;;15.85;100.00
35331;BME280;21441;52.190;20.910;2023-06-26T02:07:22;100063.16;;;15.65;100.00
35331;BME280;21441;52.190;20.910;2023-06-26T02:09:50;100070.44;;;15.44;100.00
35331;BME280;21441;52.190;20.910;2023-06-26T02:12:16;100064.00;;;15.39;100.00
35331;BME280;21441;52.190;20.910;2023-06-26T02:14:44;100059.06;;;15.36;100.00
35331;BME280;21441;52.190;20.910;2023-06-26T02:17:12;100056.34;;;15.62;100.00
35331;BME280;21441;52.190;20.910;2023-06-26T02:19:39;100056.59;;;15.74;100.00
35331;BME280;21441;52.190;20.910;2023-06-26T02:22:13;100062.56;;;15.76;100.00
35331;BME280;21441;52.190;20.910;2023-06-26T02:24:41;100061.34;;;15.72;100.00
35331;BME280;21441;52.190;20.910;2023-06-26T02:27:08;100053.47;;;15.64;100.00
35331;BME280;21441;52.190;20.910;2023-06-26T02:29:35;100058.03;;;15.63;100.00
35331;BME280;21441;52.190;20.910;2023-06-26T02:32:02;100057.59;;;15.66;100.00
35331;BME280;21441;52.190;20.910;2023-06-26T02:34:31;100052.22;;;15.66;100.00
35331;BME280;21441;52.190;20.910;2023-06-26T02:36:58;100048.25;;;15.89;100.00
35331;BME280;21441;52.190;20.910;2023-06-26T02:39:26;100054.28;;;15.64;100.00
35331;BME280;21441;52.190;20.910;2023-06-26T02:41:53;100046.03;;;15.79;100.00
35331;BME280;21441;52.190;20.910;2023-06-26T02:44:20;100058.22;;;15.55;100.00
35331;BME280;21441;52.190;20.910;2023-06-26T02:46:47;100042.31;;;15.47;100.00
35331;BME280;21441;52.190;20.910;2023-06-26T02:49:14;100053.47;;;15.57;100.00
35331;BME280;21441;52.190;20.910;2023-06-26T02:51:42;100061.94;;;15.61;100.00
35331;BME280;21441;52.190;20.910;2023-06-26T02:54:09;100059.63;;;15.98;100.00
35331;BME280;21441;52.190;20.910;2023-06-26T02:56:36;100059.44;;;15.93;100.00
35331;BME280;21441;52.190;20.910;2023-06-26T02:59:03;100052.78;;;16.02;100.00
35331;BME280;21441;52.190;20.910;2023-06-26T03:01:30;100055.94;;;15.65;100.00
35331;BME280;21441;52.190;20.910;2023-06-26T03:03:57;100042.88;;;15.89;100.00
35331;BME280;21441;52.190;20.910;2023-06-26T03:06:26;100051.81;;;15.90;100.00
35331;BME280;21441;52.190;20.910;2023-06-26T03:08:54;100067.56;;;15.73;100.00
35331;BME280;21441;52.190;20.910;2023-06-26T03:11:21;100052.94;;;16.14;100.00
35331;BME280;21441;52.190;20.910;2023-06-26T03:13:48;100048.13;;;16.36;100.00
35331;BME280;21441;52.190;20.910;2023-06-26T03:16:15;100052.72;;;16.22;100.00
35331;BME280;21441;52.190;20.910;2023-06-26T03:18:42;100061.03;;;16.20;100.00
35331;BME280;21441;52.190;20.910;2023-06-26T03:21:08;100058.94;;;16.22;100.00
35331;BME280;21441;52.190;20.910;2023-06-26T03:23:36;100057.41;;;16.40;100.00
35331;BME280;21441;52.190;20.910;2023-06-26T03:26:04;100057.22;;;16.41;100.00
35331;BME280;21441;52.190;20.910;2023-06-26T03:28:31;100060.69;;;16.48;100.00
35331;BME280;21441;52.190;20.910;2023-06-26T03:30:58;100051.94;;;16.66;100.00
35331;BME280;21441;52.190;20.910;2023-06-26T03:33:25;100055.34;;;16.87;100.00
35331;BME280;21441;52.190;20.910;2023-06-26T03:35:52;100053.22;;;16.96;100.00
35331;BME280;21441;52.190;20.910;2023-06-26T03:38:21;100056.69;;;17.03;100.00
35331;BME280;21441;52.190;20.910;2023-06-26T03:40:49;100048.13;;;17.13;100.00
35331;BME280;21441;52.190;20.910;2023-06-26T03:43:17;100062.44;;;17.13;100.00
35331;BME280;21441;52.190;20.910;2023-06-26T03:45:44;100053.53;;;17.38;100.00
35331;BME280;21441;52.190;20.910;2023-06-26T03:48:12;100053.97;;;17.60;98.05
35331;BME280;21441;52.190;20.910;2023-06-26T03:50:39;100065.25;;;17.50;98.37
35331;BME280;21441;52.190;20.910;2023-06-26T03:53:06;100059.88;;;17.50;98.51
35331;BME280;21441;52.190;20.910;2023-06-26T03:55:33;100052.53;;;17.57;97.23
35331;BME280;21441;52.190;20.910;2023-06-26T03:58:00;100056.53;;;17.73;95.85
35331;BME280;21441;52.190;20.910;2023-06-26T04:00:28;100056.81;;;17.90;94.08
35331;BME280;21441;52.190;20.910;2023-06-26T04:02:56;100054.03;;;17.97;92.26
35331;BME280;21441;52.190;20.910;2023-06-26T04:05:23;100062.88;;;18.04;91.91
35331;BME280;21441;52.190;20.910;2023-06-26T04:07:51;100052.16;;;18.15;89.51
35331;BME280;21441;52.190;20.910;2023-06-26T04:10:18;100053.13;;;18.21;89.04
35331;BME280;21441;52.190;20.910;2023-06-26T04:12:46;100052.84;;;18.29;88.07
35331;BME280;21441;52.190;20.910;2023-06-26T04:15:13;100064.53;;;18.23;88.72
35331;BME280;21441;52.190;20.910;2023-06-26T04:17:42;100054.66;;;18.35;88.42
35331;BME280;21441;52.190;20.910;2023-06-26T04:20:09;100055.59;;;18.60;84.78
35331;BME280;21441;52.190;20.910;2023-06-26T04:22:36;100052.91;;;18.71;83.20
35331;BME280;21441;52.190;20.910;2023-06-26T04:25:03;100054.03;;;18.82;82.15
35331;BME280;21441;52.190;20.910;2023-06-26T04:27:31;100052.88;;;18.90;81.74
35331;BME280;21441;52.190;20.910;2023-06-26T04:29:58;100061.13;;;18.95;81.64
35331;BME280;21441;52.190;20.910;2023-06-26T04:32:25;100054.13;;;19.06;80.76
35331;BME280;21441;52.190;20.910;2023-06-26T04:34:53;100055.56;;;19.20;79.46
35331;BME280;21441;52.190;20.910;2023-06-26T04:37:20;100052.63;;;19.22;78.75
35331;BME280;21441;52.190;20.910;2023-06-26T04:39:47;100054.41;;;19.40;77.39
35331;BME280;21441;52.190;20.910;2023-06-26T04:42:14;100054.41;;;19.51;77.16
35331;BME280;21441;52.190;20.910;2023-06-26T04:44:41;100053.00;;;19.61;75.17
35331;BME280;21441;52.190;20.910;2023-06-26T04:47:08;100055.72;;;19.84;74.09
35331;BME280;21441;52.190;20.910;2023-06-26T04:49:35;100057.72;;;20.01;72.87
35331;BME280;21441;52.190;20.910;2023-06-26T04:52:04;100057.81;;;20.06;72.79
35331;BME280;21441;52.190;20.910;2023-06-26T04:54:31;100053.09;;;20.13;71.69
35331;BME280;21441;52.190;20.910;2023-06-26T04:56:58;100068.53;;;20.12;72.17
35331;BME280;21441;52.190;20.910;2023-06-26T04:59:25;100067.09;;;20.22;71.43
35331;BME280;21441;52.190;20.910;2023-06-26T05:01:52;100062.84;;;20.26;71.68
35331;BME280;21441;52.190;20.910;2023-06-26T05:04:19;100061.75;;;20.38;71.37
35331;BME280;21441;52.190;20.910;2023-06-26T05:06:46;100058.69;;;20.47;70.83
35331;BME280;21441;52.190;20.910;2023-06-26T05:09:14;100054.44;;;20.51;70.46
35331;BME280;21441;52.190;20.910;2023-06-26T05:11:41;100057.31;;;20.73;69.65
35331;BME280;21441;52.190;20.910;2023-06-26T05:14:08;100054.59;;;20.73;67.78
35331;BME280;21441;52.190;20.910;2023-06-26T05:16:35;100054.88;;;20.88;66.93
35331;BME280;21441;52.190;20.910;2023-06-26T05:19:02;100058.72;;;20.92;66.94
35331;BME280;21441;52.190;20.910;2023-06-26T05:21:30;100059.66;;;20.98;66.80
35331;BME280;21441;52.190;20.910;2023-06-26T05:23:57;100057.13;;;21.08;66.94
35331;BME280;21441;52.190;20.910;2023-06-26T05:26:27;100049.75;;;21.37;66.85
35331;BME280;21441;52.190;20.910;2023-06-26T05:28:55;100048.94;;;21.54;66.71
35331;BME280;21441;52.190;20.910;2023-06-26T05:31:23;100043.84;;;21.57;66.74
35331;BME280;21441;52.190;20.910;2023-06-26T05:33:51;100047.19;;;21.64;65.38
35331;BME280;21441;52.190;20.910;2023-06-26T05:36:20;100042.94;;;21.91;64.47
35331;BME280;21441;52.190;20.910;2023-06-26T05:38:48;100042.16;;;22.12;63.72
35331;BME280;21441;52.190;20.910;2023-06-26T05:41:16;100042.13;;;22.29;62.30
35331;BME280;21441;52.190;20.910;2023-06-26T05:43:44;100046.41;;;22.25;61.28
35331;BME280;21441;52.190;20.910;2023-06-26T05:46:11;100044.31;;;22.32;61.42
35331;BME280;21441;52.190;20.910;2023-06-26T05:48:40;100042.88;;;22.47;59.82
35331;BME280;21441;52.190;20.910;2023-06-26T05:51:08;100040.97;;;22.47;57.86
35331;BME280;21441;52.190;20.910;2023-06-26T05:53:36;100036.16;;;22.54;58.87
35331;BME280;21441;52.190;20.910;2023-06-26T05:56:03;100035.63;;;22.79;58.33
35331;BME280;21441;52.190;20.910;2023-06-26T05:58:30;100033.22;;;23.10;57.40
35331;BME280;21441;52.190;20.910;2023-06-26T06:00:59;100031.19;;;23.27;57.03
35331;BME280;21441;52.190;20.910;2023-06-26T06:03:26;100033.94;;;23.38;57.05
35331;BME280;21441;52.190;20.910;2023-06-26T06:05:53;100037.44;;;23.28;55.83
35331;BME280;21441;52.190;20.910;2023-06-26T06:08:20;100033.34;;;23.25;54.52
35331;BME280;21441;52.190;20.910;2023-06-26T06:10:47;100037.91;;;23.20;54.92
35331;BME280;21441;52.190;20.910;2023-06-26T06:13:14;100034.28;;;23.09;55.34
35331;BME280;21441;52.190;20.910;2023-06-26T06:15:41;100033.84;;;23.22;55.01
35331;BME280;21441;52.190;20.910;2023-06-26T06:18:09;100029.84;;;23.35;55.30
35331;BME280;21441;52.190;20.910;2023-06-26T06:20:37;100028.16;;;23.24;55.52
35331;BME280;21441;52.190;20.910;2023-06-26T06:23:04;100017.81;;;23.26;55.04
35331;BME280;21441;52.190;20.910;2023-06-26T06:25:32;100023.69;;;23.45;55.21
35331;BME280;21441;52.190;20.910;2023-06-26T06:27:59;100020.69;;;23.46;55.18
35331;BME280;21441;52.190;20.910;2023-06-26T06:30:26;100023.03;;;23.70;53.25
35331;BME280;21441;52.190;20.910;2023-06-26T06:32:53;100002.13;;;23.76;53.05
35331;BME280;21441;52.190;20.910;2023-06-26T06:35:22;100022.47;;;24.16;52.68
35331;BME280;21441;52.190;20.910;2023-06-26T06:37:49;100025.69;;;24.07;49.99
35331;BME280;21441;52.190;20.910;2023-06-26T06:40:16;100028.97;;;24.04;50.65
35331;BME280;21441;52.190;20.910;2023-06-26T06:42:43;100023.72;;;23.93;51.47
35331;BME280;21441;52.190;20.910;2023-06-26T06:45:10;100014.03;;;24.22;51.00
35331;BME280;21441;52.190;20.910;2023-06-26T06:47:37;100024.56;;;24.03;51.84
35331;BME280;21441;52.190;20.910;2023-06-26T06:50:05;100011.03;;;24.24;52.01
35331;BME280;21441;52.190;20.910;2023-06-26T06:52:37;100010.31;;;24.44;52.44
35331;BME280;21441;52.190;20.910;2023-06-26T06:55:07;100014.47;;;24.77;51.58
35331;BME280;21441;52.190;20.910;2023-06-26T06:57:36;100019.66;;;24.94;51.34
35331;BME280;21441;52.190;20.910;2023-06-26T07:00:05;100013.66;;;25.02;51.92
35331;BME280;21441;52.190;20.910;2023-06-26T07:02:34;100016.69;;;24.90;49.01
35331;BME280;21441;52.190;20.910;2023-06-26T07:05:02;100014.78;;;25.01;48.68
35331;BME280;21441;52.190;20.910;2023-06-26T07:07:31;100010.41;;;25.16;48.07
35331;BME280;21441;52.190;20.910;2023-06-26T07:10:00;100008.25;;;25.28;47.72
35331;BME280;21441;52.190;20.910;2023-06-26T07:12:28;100016.13;;;25.09;46.97
35331;BME280;21441;52.190;20.910;2023-06-26T07:14:55;100006.84;;;24.84;47.76
35331;BME280;21441;52.190;20.910;2023-06-26T07:17:22;100005.44;;;24.51;48.17
35331;BME280;21441;52.190;20.910;2023-06-26T07:19:50;100007.94;;;24.83;47.08
35331;BME280;21441;52.190;20.910;2023-06-26T07:22:17;99997.56;;;24.96;47.28
35331;BME280;21441;52.190;20.910;2023-06-26T07:24:46;100004.41;;;25.08;47.00
35331;BME280;21441;52.190;20.910;2023-06-26T07:27:14;100000.31;;;25.11;47.30
35331;BME280;21441;52.190;20.910;2023-06-26T07:29:41;100000.59;;;25.20;46.81
35331;BME280;21441;52.190;20.910;2023-06-26T07:32:08;100000.88;;;25.28;47.57
35331;BME280;21441;52.190;20.910;2023-06-26T07:34:36;100000.31;;;25.31;46.95
35331;BME280;21441;52.190;20.910;2023-06-26T07:37:03;99998.13;;;25.39;46.38
35331;BME280;21441;52.190;20.910;2023-06-26T07:39:30;100001.66;;;25.55;45.49
35331;BME280;21441;52.190;20.910;2023-06-26T07:41:57;99998.91;;;25.65;45.27
35331;BME280;21441;52.190;20.910;2023-06-26T07:44:27;99993.69;;;25.73;45.70
35331;BME280;21441;52.190;20.910;2023-06-26T07:46:54;99992.38;;;25.40;44.72
35331;BME280;21441;52.190;20.910;2023-06-26T07:49:21;99994.53;;;25.64;45.03
35331;BME280;21441;52.190;20.910;2023-06-26T07:51:48;100003.56;;;25.54;45.23
35331;BME280;21441;52.190;20.910;2023-06-26T07:54:16;99995.28;;;25.80;43.89
35331;BME280;21441;52.190;20.910;2023-06-26T07:56:53;99992.25;;;25.86;44.69
35331;BME280;21441;52.190;20.910;2023-06-26T07:59:21;99989.50;;;26.02;43.64
35331;BME280;21441;52.190;20.910;2023-06-26T08:01:50;99990.53;;;26.16;42.88
35331;BME280;21441;52.190;20.910;2023-06-26T08:04:18;99990.78;;;26.25;42.79
35331;BME280;21441;52.190;20.910;2023-06-26T08:06:47;99990.38;;;25.82;43.49
35331;BME280;21441;52.190;20.910;2023-06-26T08:09:15;99996.47;;;25.53;44.53
35331;BME280;21441;52.190;20.910;2023-06-26T08:11:42;99991.22;;;25.82;44.89
35331;BME280;21441;52.190;20.910;2023-06-26T08:14:10;99991.66;;;26.10;43.26
35331;BME280;21441;52.190;20.910;2023-06-26T08:16:37;99985.66;;;26.13;44.49
35331;BME280;21441;52.190;20.910;2023-06-26T08:19:06;99990.84;;;26.09;44.32
35331;BME280;21441;52.190;20.910;2023-06-26T08:21:33;99987.03;;;26.05;43.57
35331;BME280;21441;52.190;20.910;2023-06-26T08:24:01;99985.09;;;26.11;42.88
35331;BME280;21441;52.190;20.910;2023-06-26T08:26:28;99981.94;;;26.38;43.53
35331;BME280;21441;52.190;20.910;2023-06-26T08:28:55;99985.75;;;26.42;43.08
35331;BME280;21441;52.190;20.910;2023-06-26T08:31:22;99978.25;;;26.68;41.38
35331;BME280;21441;52.190;20.910;2023-06-26T08:33:50;99978.81;;;27.00;40.11
35331;BME280;21441;52.190;20.910;2023-06-26T08:36:18;99983.56;;;27.18;40.21
35331;BME280;21441;52.190;20.910;2023-06-26T08:38:45;99979.34;;;27.02;40.91
35331;BME280;21441;52.190;20.910;2023-06-26T08:41:12;99961.03;;;26.97;40.88
35331;BME280;21441;52.190;20.910;2023-06-26T08:43:39;99974.53;;;26.88;39.65
35331;BME280;21441;52.190;20.910;2023-06-26T08:46:07;99967.13;;;27.18;40.08
35331;BME280;21441;52.190;20.910;2023-06-26T08:48:35;99966.31;;;27.17;39.32
35331;BME280;21441;52.190;20.910;2023-06-26T08:51:07;99967.97;;;27.19;39.92
35331;BME280;21441;52.190;20.910;2023-06-26T08:53:41;99969.06;;;26.88;39.63
35331;BME280;21441;52.190;20.910;2023-06-26T08:56:11;99965.03;;;26.75;38.62
35331;BME280;21441;52.190;20.910;2023-06-26T08:58:39;99965.06;;;27.05;39.27
35331;BME280;21441;52.190;20.910;2023-06-26T09:01:07;99962.84;;;26.78;39.12
35331;BME280;21441;52.190;20.910;2023-06-26T09:03:35;99959.19;;;27.22;39.18
35331;BME280;21441;52.190;20.910;2023-06-26T09:06:02;99953.66;;;27.56;38.41
35331;BME280;21441;52.190;20.910;2023-06-26T09:08:29;99954.53;;;27.51;37.88
35331;BME280;21441;52.190;20.910;2023-06-26T09:10:57;99961.38;;;27.49;38.83
35331;BME280;21441;52.190;20.910;2023-06-26T09:13:25;99958.25;;;27.61;37.45
35331;BME280;21441;52.190;20.910;2023-06-26T09:15:54;99947.47;;;27.69;37.44
35331;BME280;21441;52.190;20.910;2023-06-26T09:18:21;99940.88;;;27.70;36.07
35331;BME280;21441;52.190;20.910;2023-06-26T09:20:49;99951.53;;;27.48;37.54
35331;BME280;21441;52.190;20.910;2023-06-26T09:23:16;99948.78;;;27.24;38.07
35331;BME280;21441;52.190;20.910;2023-06-26T09:25:43;99937.72;;;27.82;37.45
35331;BME280;21441;52.190;20.910;2023-06-26T09:28:15;99940.75;;;27.81;37.31
35331;BME280;21441;52.190;20.910;2023-06-26T09:30:42;99946.34;;;27.46;37.30
35331;BME280;21441;52.190;20.910;2023-06-26T09:33:15;99945.28;;;27.13;38.21
35331;BME280;21441;52.190;20.910;2023-06-26T09:35:43;99938.19;;;27.65;37.80
35331;BME280;21441;52.190;20.910;2023-06-26T09:38:11;99936.16;;;27.76;38.25
35331;BME280;21441;52.190;20.910;2023-06-26T09:40:38;99941.56;;;28.05;37.27
35331;BME280;21441;52.190;20.910;2023-06-26T09:43:06;99937.72;;;28.44;37.57
35331;BME280;21441;52.190;20.910;2023-06-26T09:45:35;99941.63;;;28.76;36.82
35331;BME280;21441;52.190;20.910;2023-06-26T09:48:03;99942.19;;;28.59;36.71
35331;BME280;21441;52.190;20.910;2023-06-26T09:50:32;99944.16;;;28.34;37.32
35331;BME280;21441;52.190;20.910;2023-06-26T09:53:07;99947.31;;;27.85;38.47
35331;BME280;21441;52.190;20.910;2023-06-26T09:55:36;99935.88;;;27.29;38.72
35331;BME280;21441;52.190;20.910;2023-06-26T09:58:03;99941.69;;;27.17;39.32
35331;BME280;21441;52.190;20.910;2023-06-26T10:00:31;99946.97;;;27.09;39.64
35331;BME280;21441;52.190;20.910;2023-06-26T10:02:59;99946.50;;;27.02;40.00
35331;BME280;21441;52.190;20.910;2023-06-26T10:05:27;99941.47;;;27.43;39.28
35331;BME280;21441;52.190;20.910;2023-06-26T10:07:54;99945.72;;;27.78;39.31
35331;BME280;21441;52.190;20.910;2023-06-26T10:10:23;99943.72;;;28.27;37.95
35331;BME280;21441;52.190;20.910;2023-06-26T10:12:54;99933.50;;;28.71;36.38
35331;BME280;21441;52.190;20.910;2023-06-26T10:15:25;99932.44;;;28.99;36.95
35331;BME280;21441;52.190;20.910;2023-06-26T10:17:55;99933.34;;;28.95;35.50
35331;BME280;21441;52.190;20.910;2023-06-26T10:20:24;99915.84;;;29.65;34.65
35331;BME280;21441;52.190;20.910;2023-06-26T10:22:55;99914.59;;;30.13;33.97
35331;BME280;21441;52.190;20.910;2023-06-26T10:25:25;99917.19;;;28.93;35.06
35331;BME280;21441;52.190;20.910;2023-06-26T10:27:54;99916.50;;;28.69;36.01
35331;BME280;21441;52.190;20.910;2023-06-26T10:30:26;99911.84;;;28.31;36.69
35331;BME280;21441;52.190;20.910;2023-06-26T10:32:55;99904.66;;;28.35;35.51
35331;BME280;21441;52.190;20.910;2023-06-26T10:35:25;99912.84;;;28.73;35.28
35331;BME280;21441;52.190;20.910;2023-06-26T10:38:00;99900.84;;;28.69;35.11
35331;BME280;21441;52.190;20.910;2023-06-26T10:40:28;99890.56;;;28.94;35.80
35331;BME280;21441;52.190;20.910;2023-06-26T10:43:08;99898.97;;;29.30;35.17
35331;BME280;21441;52.190;20.910;2023-06-26T10:45:36;99893.75;;;29.29;34.69
35331;BME280;21441;52.190;20.910;2023-06-26T10:48:03;99887.03;;;29.07;34.57
35331;BME280;21441;52.190;20.910;2023-06-26T10:50:33;99890.75;;;28.97;35.29
35331;BME280;21441;52.190;20.910;2023-06-26T10:53:10;99892.56;;;28.88;34.76
35331;BME280;21441;52.190;20.910;2023-06-26T10:55:47;99893.09;;;29.04;35.88
35331;BME280;21441;52.190;20.910;2023-06-26T10:58:28;99891.94;;;29.24;34.74
35331;BME280;21441;52.190;20.910;2023-06-26T11:01:18;99887.97;;;29.16;35.51
35331;BME280;21441;52.190;20.910;2023-06-26T11:03:48;99893.25;;;29.96;34.58
35331;BME280;21441;52.190;20.910;2023-06-26T11:06:21;99883.28;;;30.22;33.83
35331;BME280;21441;52.190;20.910;2023-06-26T11:08:48;99886.09;;;30.09;34.42
35331;BME280;21441;52.190;20.910;2023-06-26T11:11:16;99883.00;;;29.74;34.39
35331;BME280;21441;52.190;20.910;2023-06-26T11:13:45;99879.63;;;29.21;34.95
35331;BME280;21441;52.190;20.910;2023-06-26T11:16:12;99884.78;;;29.92;34.46
35331;BME280;21441;52.190;20.910;2023-06-26T11:18:40;99867.13;;;30.43;34.62
35331;BME280;21441;52.190;20.910;2023-06-26T11:21:08;99865.41;;;30.56;33.21
35331;BME280;21441;52.190;20.910;2023-06-26T11:23:38;99863.56;;;30.66;32.94
35331;BME280;21441;52.190;20.910;2023-06-26T11:26:14;99877.31;;;30.43;33.10
35331;BME280;21441;52.190;20.910;2023-06-26T11:28:46;99867.19;;;29.66;33.98
35331;BME280;21441;52.190;20.910;2023-06-26T11:31:27;99868.25;;;29.28;34.98
35331;BME280;21441;52.190;20.910;2023-06-26T11:33:56;99873.88;;;28.90;34.91
35331;BME280;21441;52.190;20.910;2023-06-26T11:36:24;99872.34;;;28.51;34.79
35331;BME280;21441;52.190;20.910;2023-06-26T11:38:57;99858.84;;;29.01;34.86
35331;BME280;21441;52.190;20.910;2023-06-26T11:41:26;99860.47;;;29.86;35.08
35331;BME280;21441;52.190;20.910;2023-06-26T11:43:54;99856.56;;;30.37;32.18
35331;BME280;21441;52.190;20.910;2023-06-26T11:46:22;99856.47;;;30.73;32.94
35331;BME280;21441;52.190;20.910;2023-06-26T11:48:49;99858.06;;;30.43;33.08
35331;BME280;21441;52.190;20.910;2023-06-26T11:51:16;99847.16;;;30.83;32.18
35331;BME280;21441;52.190;20.910;2023-06-26T11:53:45;99849.72;;;31.11;31.41
35331;BME280;21441;52.190;20.910;2023-06-26T11:56:15;99854.94;;;31.21;31.03
35331;BME280;21441;52.190;20.910;2023-06-26T11:58:58;99853.84;;;30.23;31.48
35331;BME280;21441;52.190;20.910;2023-06-26T12:01:27;99842.75;;;31.13;30.79
35331;BME280;21441;52.190;20.910;2023-06-26T12:03:58;99837.16;;;31.36;29.53
35331;BME280;21441;52.190;20.910;2023-06-26T12:06:27;99835.91;;;31.51;29.56
35331;BME280;21441;52.190;20.910;2023-06-26T12:08:55;99840.03;;;31.62;30.23
35331;BME280;21441;52.190;20.910;2023-06-26T12:11:24;99825.47;;;31.30;29.98
35331;BME280;21441;52.190;20.910;2023-06-26T12:13:52;99836.97;;;31.23;30.49
35331;BME280;21441;52.190;20.910;2023-06-26T12:16:19;99820.69;;;31.44;29.83
35331;BME280;21441;52.190;20.910;2023-06-26T12:18:46;99827.69;;;31.77;29.86
35331;BME280;21441;52.190;20.910;2023-06-26T12:21:44;99815.44;;;31.34;29.11
35331;BME280;21441;52.190;20.910;2023-06-26T12:24:15;99819.47;;;31.28;29.90
35331;BME280;21441;52.190;20.910;2023-06-26T12:26:46;99821.66;;;31.57;29.51
35331;BME280;21441;52.190;20.910;2023-06-26T12:29:14;99812.28;;;31.67;30.06
35331;BME280;21441;52.190;20.910;2023-06-26T12:31:44;99821.41;;;32.11;29.80
35331;BME280;21441;52.190;20.910;2023-06-26T12:34:14;99813.63;;;32.13;29.32
35331;BME280;21441;52.190;20.910;2023-06-26T12:36:45;99806.63;;;32.24;28.36
35331;BME280;21441;52.190;20.910;2023-06-26T12:39:13;99811.16;;;32.38;28.36
35331;BME280;21441;52.190;20.910;2023-06-26T12:41:52;99805.03;;;32.06;27.84
35331;BME280;21441;52.190;20.910;2023-06-26T12:44:20;99797.41;;;32.85;27.67
35331;BME280;21441;52.190;20.910;2023-06-26T12:46:49;99804.56;;;33.24;27.02
35331;BME280;21441;52.190;20.910;2023-06-26T12:49:16;99792.56;;;33.20;27.31